sensor_id;sensor_type;location;lat;lon;timestamp;P1;durP1;ratioP1;P2;durP2;ratioP2
52266;SDS011;38223;50.940;4.034;2022-10-31T00:00:19;16.87;;;11.43;;
52266;SDS011;38223;50.940;4.034;2022-10-31T00:02:54;18.50;;;11.68;;
52266;SDS011;38223;50.940;4.034;2022-10-31T00:05:29;18.10;;;11.97;;
52266;SDS011;38223;50.940;4.034;2022-10-31T00:08:01;15.85;;;12.53;;
52266;SDS011;38223;50.940;4.034;2022-10-31T00:10:36;15.18;;;11.75;;
52266;SDS011;38223;50.940;4.034;2022-10-31T00:13:12;13.50;;;11.83;;
52266;SDS011;38223;50.940;4.034;2022-10-31T00:15:51;18.20;;;12.03;;
52266;SDS011;38223;50.940;4.034;2022-10-31T00:18:21;14.95;;;12.05;;
52266;SDS011;38223;50.940;4.034;2022-10-31T00:20:59;16.67;;;12.10;;
52266;SDS011;38223;50.940;4.034;2022-10-31T00:23:32;15.50;;;11.00;;
52266;SDS011;38223;50.940;4.034;2022-10-31T00:26:04;14.90;;;11.18;;
52266;SDS011;38223;50.940;4.034;2022-10-31T00:28:34;19.07;;;12.10;;
52266;SDS011;38223;50.940;4.034;2022-10-31T00:31:06;16.87;;;12.10;;
52266;SDS011;38223;50.940;4.034;2022-10-31T00:33:43;17.17;;;12.68;;
52266;SDS011;38223;50.940;4.034;2022-10-31T00:36:13;15.83;;;12.23;;
52266;SDS011;38223;50.940;4.034;2022-10-31T00:38:46;20.68;;;12.70;;
52266;SDS011;38223;50.940;4.034;2022-10-31T00:41:18;15.90;;;12.13;;
52266;SDS011;38223;50.940;4.034;2022-10-31T00:43:50;18.82;;;12.40;;
52266;SDS011;38223;50.940;4.034;2022-10-31T00:46:26;13.38;;;12.05;;
52266;SDS011;38223;50.940;4.034;2022-10-31T00:49:00;16.25;;;12.63;;
52266;SDS011;38223;50.940;4.034;2022-10-31T00:51:35;16.35;;;12.10;;
52266;SDS011;38223;50.940;4.034;2022-10-31T00:54:05;18.65;;;12.95;;
52266;SDS011;38223;50.940;4.034;2022-10-31T00:56:39;19.90;;;12.98;;
52266;SDS011;38223;50.940;4.034;2022-10-31T00:59:09;20.55;;;13.13;;
52266;SDS011;38223;50.940;4.034;2022-10-31T01:01:41;19.65;;;12.80;;
52266;SDS011;38223;50.940;4.034;2022-10-31T01:04:15;22.67;;;12.95;;
52266;SDS011;38223;50.940;4.034;2022-10-31T01:06:48;21.68;;;13.35;;
52266;SDS011;38223;50.940;4.034;2022-10-31T01:09:21;19.95;;;13.35;;
52266;SDS011;38223;50.940;4.034;2022-10-31T01:11:55;18.17;;;12.90;;
52266;SDS011;38223;50.940;4.034;2022-10-31T01:14:25;16.50;;;12.37;;
52266;SDS011;38223;50.940;4.034;2022-10-31T01:16:56;18.57;;;12.53;;
52266;SDS011;38223;50.940;4.034;2022-10-31T01:19:31;17.23;;;12.07;;
52266;SDS011;38223;50.940;4.034;2022-10-31T01:22:02;18.92;;;11.83;;
52266;SDS011;38223;50.940;4.034;2022-10-31T01:24:31;16.70;;;12.85;;
52266;SDS011;38223;50.940;4.034;2022-10-31T01:27:03;19.12;;;11.65;;
52266;SDS011;38223;50.940;4.034;2022-10-31T01:29:34;17.98;;;11.93;;
52266;SDS011;38223;50.940;4.034;2022-10-31T01:32:06;15.08;;;11.57;;
52266;SDS011;38223;50.940;4.034;2022-10-31T01:34:37;20.97;;;11.38;;
52266;SDS011;38223;50.940;4.034;2022-10-31T01:37:11;14.93;;;11.68;;
52266;SDS011;38223;50.940;4.034;2022-10-31T01:39:42;15.28;;;11.38;;
52266;SDS011;38223;50.940;4.034;2022-10-31T01:42:21;18.17;;;12.18;;
52266;SDS011;38223;50.940;4.034;2022-10-31T01:44:58;14.70;;;11.50;;
52266;SDS011;38223;50.940;4.034;2022-10-31T01:47:33;13.40;;;11.33;;
52266;SDS011;38223;50.940;4.034;2022-10-31T01:50:11;13.43;;;11.40;;
52266;SDS011;38223;50.940;4.034;2022-10-31T01:52:48;14.23;;;11.60;;
52266;SDS011;38223;50.940;4.034;2022-10-31T01:55:27;17.60;;;12.07;;
52266;SDS011;38223;50.940;4.034;2022-10-31T01:58:00;15.93;;;12.65;;
52266;SDS011;38223;50.940;4.034;2022-10-31T02:00:30;18.65;;;12.13;;
52266;SDS011;38223;50.940;4.034;2022-10-31T02:03:05;17.17;;;12.05;;
52266;SDS011;38223;50.940;4.034;2022-10-31T02:05:39;17.75;;;12.37;;
52266;SDS011;38223;50.940;4.034;2022-10-31T02:08:20;16.32;;;12.23;;
52266;SDS011;38223;50.940;4.034;2022-10-31T02:10:50;19.25;;;13.10;;
52266;SDS011;38223;50.940;4.034;2022-10-31T02:13:25;17.25;;;12.47;;
52266;SDS011;38223;50.940;4.034;2022-10-31T02:15:57;14.50;;;12.03;;
52266;SDS011;38223;50.940;4.034;2022-10-31T02:18:29;16.32;;;12.20;;
52266;SDS011;38223;50.940;4.034;2022-10-31T02:21:09;13.68;;;11.53;;
52266;SDS011;38223;50.940;4.034;2022-10-31T02:24:03;21.70;;;12.35;;
52266;SDS011;38223;50.940;4.034;2022-10-31T02:26:45;15.58;;;12.25;;
52266;SDS011;38223;50.940;4.034;2022-10-31T02:37:35;17.48;;;12.60;;
52266;SDS011;38223;50.940;4.034;2022-10-31T02:40:14;20.72;;;12.43;;
52266;SDS011;38223;50.940;4.034;2022-10-31T02:46:02;15.63;;;12.25;;
52266;SDS011;38223;50.940;4.034;2022-10-31T02:48:28;14.05;;;12.23;;
52266;SDS011;38223;50.940;4.034;2022-10-31T02:51:02;13.48;;;11.88;;
52266;SDS011;38223;50.940;4.034;2022-10-31T02:53:35;15.93;;;12.43;;
52266;SDS011;38223;50.940;4.034;2022-10-31T02:56:17;17.82;;;12.65;;
52266;SDS011;38223;50.940;4.034;2022-10-31T03:01:39;16.07;;;12.28;;
52266;SDS011;38223;50.940;4.034;2022-10-31T03:07:05;14.18;;;12.25;;
52266;SDS011;38223;50.940;4.034;2022-10-31T03:09:42;16.40;;;13.05;;
52266;SDS011;38223;50.940;4.034;2022-10-31T03:12:19;20.50;;;13.35;;
52266;SDS011;38223;50.940;4.034;2022-10-31T03:17:31;17.07;;;12.85;;
52266;SDS011;38223;50.940;4.034;2022-10-31T03:20:03;24.52;;;12.47;;
52266;SDS011;38223;50.940;4.034;2022-10-31T03:22:38;14.20;;;12.45;;
52266;SDS011;38223;50.940;4.034;2022-10-31T03:25:10;17.02;;;12.73;;
52266;SDS011;38223;50.940;4.034;2022-10-31T03:27:43;16.90;;;12.60;;
52266;SDS011;38223;50.940;4.034;2022-10-31T03:30:19;19.23;;;12.85;;
52266;SDS011;38223;50.940;4.034;2022-10-31T03:32:54;19.82;;;12.43;;
52266;SDS011;38223;50.940;4.034;2022-10-31T03:35:28;18.05;;;12.50;;
52266;SDS011;38223;50.940;4.034;2022-10-31T03:38:04;19.40;;;12.63;;
52266;SDS011;38223;50.940;4.034;2022-10-31T03:40:35;18.65;;;12.68;;
52266;SDS011;38223;50.940;4.034;2022-10-31T03:43:21;19.98;;;12.43;;
52266;SDS011;38223;50.940;4.034;2022-10-31T03:45:59;15.20;;;11.95;;
52266;SDS011;38223;50.940;4.034;2022-10-31T03:48:29;14.50;;;12.25;;
52266;SDS011;38223;50.940;4.034;2022-10-31T03:51:20;21.68;;;12.93;;
52266;SDS011;38223;50.940;4.034;2022-10-31T03:56:31;15.28;;;12.25;;
52266;SDS011;38223;50.940;4.034;2022-10-31T03:58:58;15.25;;;12.20;;
52266;SDS011;38223;50.940;4.034;2022-10-31T04:01:37;15.78;;;11.95;;
52266;SDS011;38223;50.940;4.034;2022-10-31T04:04:08;18.52;;;12.28;;
52266;SDS011;38223;50.940;4.034;2022-10-31T04:06:43;17.45;;;12.60;;
52266;SDS011;38223;50.940;4.034;2022-10-31T04:09:14;19.48;;;12.25;;
52266;SDS011;38223;50.940;4.034;2022-10-31T04:11:52;16.00;;;11.83;;
52266;SDS011;38223;50.940;4.034;2022-10-31T04:14:24;19.65;;;12.58;;
52266;SDS011;38223;50.940;4.034;2022-10-31T04:16:58;18.30;;;12.18;;
52266;SDS011;38223;50.940;4.034;2022-10-31T04:19:32;15.58;;;12.05;;
52266;SDS011;38223;50.940;4.034;2022-10-31T04:22:07;16.15;;;11.85;;
52266;SDS011;38223;50.940;4.034;2022-10-31T04:24:38;13.40;;;11.90;;
52266;SDS011;38223;50.940;4.034;2022-10-31T04:27:23;20.57;;;11.95;;
52266;SDS011;38223;50.940;4.034;2022-10-31T04:29:58;18.35;;;11.88;;
52266;SDS011;38223;50.940;4.034;2022-10-31T04:32:30;16.10;;;12.43;;
52266;SDS011;38223;50.940;4.034;2022-10-31T04:35:02;15.68;;;12.25;;
52266;SDS011;38223;50.940;4.034;2022-10-31T04:37:35;17.95;;;12.43;;
52266;SDS011;38223;50.940;4.034;2022-10-31T04:40:06;19.40;;;12.90;;
52266;SDS011;38223;50.940;4.034;2022-10-31T04:42:40;16.42;;;12.35;;
52266;SDS011;38223;50.940;4.034;2022-10-31T04:45:21;17.85;;;12.60;;
52266;SDS011;38223;50.940;4.034;2022-10-31T04:47:56;14.53;;;11.60;;
52266;SDS011;38223;50.940;4.034;2022-10-31T04:50:28;20.20;;;12.90;;
52266;SDS011;38223;50.940;4.034;2022-10-31T04:53:01;19.50;;;12.78;;
52266;SDS011;38223;50.940;4.034;2022-10-31T04:55:30;18.32;;;12.23;;
52266;SDS011;38223;50.940;4.034;2022-10-31T04:58:06;16.75;;;11.97;;
52266;SDS011;38223;50.940;4.034;2022-10-31T05:00:41;13.98;;;11.57;;
52266;SDS011;38223;50.940;4.034;2022-10-31T05:03:13;21.07;;;12.73;;
52266;SDS011;38223;50.940;4.034;2022-10-31T05:05:45;17.02;;;12.35;;
52266;SDS011;38223;50.940;4.034;2022-10-31T05:08:17;17.37;;;12.30;;
52266;SDS011;38223;50.940;4.034;2022-10-31T05:10:48;13.55;;;12.23;;
52266;SDS011;38223;50.940;4.034;2022-10-31T05:13:20;18.00;;;11.93;;
52266;SDS011;38223;50.940;4.034;2022-10-31T05:15:50;15.98;;;12.18;;
52266;SDS011;38223;50.940;4.034;2022-10-31T05:18:21;18.32;;;12.15;;
52266;SDS011;38223;50.940;4.034;2022-10-31T05:20:55;17.45;;;12.70;;
52266;SDS011;38223;50.940;4.034;2022-10-31T05:23:29;22.32;;;12.95;;
52266;SDS011;38223;50.940;4.034;2022-10-31T05:26:01;22.00;;;13.55;;
52266;SDS011;38223;50.940;4.034;2022-10-31T05:28:35;17.40;;;12.90;;
52266;SDS011;38223;50.940;4.034;2022-10-31T05:31:06;14.58;;;12.88;;
52266;SDS011;38223;50.940;4.034;2022-10-31T05:33:40;21.05;;;13.00;;
52266;SDS011;38223;50.940;4.034;2022-10-31T05:36:12;24.35;;;13.00;;
52266;SDS011;38223;50.940;4.034;2022-10-31T05:38:43;18.50;;;12.37;;
52266;SDS011;38223;50.940;4.034;2022-10-31T05:41:16;14.38;;;12.05;;
52266;SDS011;38223;50.940;4.034;2022-10-31T05:43:52;15.83;;;12.50;;
52266;SDS011;38223;50.940;4.034;2022-10-31T05:46:25;18.80;;;12.70;;
52266;SDS011;38223;50.940;4.034;2022-10-31T05:49:02;16.40;;;12.18;;
52266;SDS011;38223;50.940;4.034;2022-10-31T05:51:33;15.80;;;12.65;;
52266;SDS011;38223;50.940;4.034;2022-10-31T05:54:08;14.93;;;12.68;;
52266;SDS011;38223;50.940;4.034;2022-10-31T05:56:39;16.80;;;13.45;;
52266;SDS011;38223;50.940;4.034;2022-10-31T05:59:11;24.55;;;14.78;;
52266;SDS011;38223;50.940;4.034;2022-10-31T06:01:47;20.20;;;14.15;;
52266;SDS011;38223;50.940;4.034;2022-10-31T06:04:22;16.15;;;13.30;;
52266;SDS011;38223;50.940;4.034;2022-10-31T06:06:58;18.48;;;13.62;;
52266;SDS011;38223;50.940;4.034;2022-10-31T06:09:28;29.20;;;14.43;;
52266;SDS011;38223;50.940;4.034;2022-10-31T06:11:59;18.95;;;14.23;;
52266;SDS011;38223;50.940;4.034;2022-10-31T06:14:35;19.32;;;14.20;;
52266;SDS011;38223;50.940;4.034;2022-10-31T06:17:06;17.62;;;13.18;;
52266;SDS011;38223;50.940;4.034;2022-10-31T06:19:40;18.95;;;14.50;;
52266;SDS011;38223;50.940;4.034;2022-10-31T06:22:11;16.37;;;13.08;;
52266;SDS011;38223;50.940;4.034;2022-10-31T06:24:47;16.87;;;13.68;;
52266;SDS011;38223;50.940;4.034;2022-10-31T06:27:19;15.38;;;13.45;;
52266;SDS011;38223;50.940;4.034;2022-10-31T06:29:55;17.10;;;13.68;;
52266;SDS011;38223;50.940;4.034;2022-10-31T06:32:28;20.37;;;13.93;;
52266;SDS011;38223;50.940;4.034;2022-10-31T06:35:04;17.92;;;14.53;;
52266;SDS011;38223;50.940;4.034;2022-10-31T06:37:37;18.95;;;13.53;;
52266;SDS011;38223;50.940;4.034;2022-10-31T06:40:11;19.90;;;14.38;;
52266;SDS011;38223;50.940;4.034;2022-10-31T06:42:40;17.30;;;14.47;;
52266;SDS011;38223;50.940;4.034;2022-10-31T06:45:12;19.15;;;13.88;;
52266;SDS011;38223;50.940;4.034;2022-10-31T06:47:53;18.82;;;13.88;;
52266;SDS011;38223;50.940;4.034;2022-10-31T06:50:28;20.72;;;14.15;;
52266;SDS011;38223;50.940;4.034;2022-10-31T06:52:58;19.50;;;13.35;;
52266;SDS011;38223;50.940;4.034;2022-10-31T06:55:33;15.50;;;13.55;;
52266;SDS011;38223;50.940;4.034;2022-10-31T06:58:03;16.42;;;14.23;;
52266;SDS011;38223;50.940;4.034;2022-10-31T07:00:35;16.55;;;13.10;;
52266;SDS011;38223;50.940;4.034;2022-10-31T07:03:10;20.37;;;12.58;;
52266;SDS011;38223;50.940;4.034;2022-10-31T07:05:41;16.95;;;12.85;;
52266;SDS011;38223;50.940;4.034;2022-10-31T07:08:15;17.90;;;13.20;;
52266;SDS011;38223;50.940;4.034;2022-10-31T07:10:50;17.85;;;12.88;;
52266;SDS011;38223;50.940;4.034;2022-10-31T07:13:26;17.90;;;13.80;;
52266;SDS011;38223;50.940;4.034;2022-10-31T07:15:59;15.25;;;12.78;;
52266;SDS011;38223;50.940;4.034;2022-10-31T07:18:30;16.95;;;13.08;;
52266;SDS011;38223;50.940;4.034;2022-10-31T07:21:01;16.37;;;13.10;;
52266;SDS011;38223;50.940;4.034;2022-10-31T07:23:33;19.82;;;14.10;;
52266;SDS011;38223;50.940;4.034;2022-10-31T07:26:03;18.15;;;14.05;;
52266;SDS011;38223;50.940;4.034;2022-10-31T07:28:39;17.12;;;13.25;;
52266;SDS011;38223;50.940;4.034;2022-10-31T07:31:10;19.30;;;13.78;;
52266;SDS011;38223;50.940;4.034;2022-10-31T07:33:56;17.92;;;13.78;;
52266;SDS011;38223;50.940;4.034;2022-10-31T07:36:28;23.18;;;14.80;;
52266;SDS011;38223;50.940;4.034;2022-10-31T07:39:03;16.73;;;13.58;;
52266;SDS011;38223;50.940;4.034;2022-10-31T07:41:35;20.92;;;13.78;;
52266;SDS011;38223;50.940;4.034;2022-10-31T07:44:06;19.25;;;13.28;;
52266;SDS011;38223;50.940;4.034;2022-10-31T07:46:43;17.17;;;14.13;;
52266;SDS011;38223;50.940;4.034;2022-10-31T07:49:16;16.57;;;14.25;;
52266;SDS011;38223;50.940;4.034;2022-10-31T07:51:46;14.53;;;12.78;;
52266;SDS011;38223;50.940;4.034;2022-10-31T07:54:16;17.17;;;14.43;;
52266;SDS011;38223;50.940;4.034;2022-10-31T07:56:51;17.55;;;13.88;;
52266;SDS011;38223;50.940;4.034;2022-10-31T07:59:21;19.60;;;13.28;;
52266;SDS011;38223;50.940;4.034;2022-10-31T08:01:58;18.48;;;13.62;;
52266;SDS011;38223;50.940;4.034;2022-10-31T08:04:27;17.80;;;14.68;;
52266;SDS011;38223;50.940;4.034;2022-10-31T08:07:01;19.48;;;13.68;;
52266;SDS011;38223;50.940;4.034;2022-10-31T08:09:35;21.65;;;14.47;;
52266;SDS011;38223;50.940;4.034;2022-10-31T08:12:05;27.00;;;13.48;;
52266;SDS011;38223;50.940;4.034;2022-10-31T08:14:39;20.25;;;13.80;;
52266;SDS011;38223;50.940;4.034;2022-10-31T08:17:11;18.65;;;14.13;;
52266;SDS011;38223;50.940;4.034;2022-10-31T08:19:38;24.18;;;13.38;;
52266;SDS011;38223;50.940;4.034;2022-10-31T08:22:06;17.60;;;13.15;;
52266;SDS011;38223;50.940;4.034;2022-10-31T08:24:34;18.60;;;14.87;;
52266;SDS011;38223;50.940;4.034;2022-10-31T08:27:05;19.12;;;13.85;;
52266;SDS011;38223;50.940;4.034;2022-10-31T08:29:36;18.87;;;13.15;;
52266;SDS011;38223;50.940;4.034;2022-10-31T08:32:09;21.82;;;14.07;;
52266;SDS011;38223;50.940;4.034;2022-10-31T08:34:43;25.50;;;15.55;;
52266;SDS011;38223;50.940;4.034;2022-10-31T08:37:15;28.15;;;15.95;;
52266;SDS011;38223;50.940;4.034;2022-10-31T08:39:50;20.15;;;14.40;;
52266;SDS011;38223;50.940;4.034;2022-10-31T08:42:23;19.87;;;13.55;;
52266;SDS011;38223;50.940;4.034;2022-10-31T08:44:58;19.95;;;13.60;;
52266;SDS011;38223;50.940;4.034;2022-10-31T08:47:30;23.02;;;13.72;;
52266;SDS011;38223;50.940;4.034;2022-10-31T08:50:00;17.67;;;13.18;;
52266;SDS011;38223;50.940;4.034;2022-10-31T08:52:30;20.70;;;14.03;;
52266;SDS011;38223;50.940;4.034;2022-10-31T08:55:00;17.12;;;13.90;;
52266;SDS011;38223;50.940;4.034;2022-10-31T08:57:34;16.50;;;13.93;;
52266;SDS011;38223;50.940;4.034;2022-10-31T09:00:04;19.62;;;15.40;;
52266;SDS011;38223;50.940;4.034;2022-10-31T09:02:39;17.37;;;14.70;;
52266;SDS011;38223;50.940;4.034;2022-10-31T09:05:10;22.27;;;15.83;;
52266;SDS011;38223;50.940;4.034;2022-10-31T09:07:44;23.98;;;17.23;;
52266;SDS011;38223;50.940;4.034;2022-10-31T09:10:14;17.62;;;15.43;;
52266;SDS011;38223;50.940;4.034;2022-10-31T09:12:45;19.23;;;15.55;;
52266;SDS011;38223;50.940;4.034;2022-10-31T09:15:19;19.95;;;15.05;;
52266;SDS011;38223;50.940;4.034;2022-10-31T09:17:51;19.67;;;14.00;;
52266;SDS011;38223;50.940;4.034;2022-10-31T09:20:27;20.75;;;13.70;;
52266;SDS011;38223;50.940;4.034;2022-10-31T09:22:56;23.80;;;15.43;;
52266;SDS011;38223;50.940;4.034;2022-10-31T09:27:58;31.87;;;16.48;;
52266;SDS011;38223;50.940;4.034;2022-10-31T09:30:32;27.52;;;16.27;;
52266;SDS011;38223;50.940;4.034;2022-10-31T09:33:06;20.60;;;15.63;;
52266;SDS011;38223;50.940;4.034;2022-10-31T09:35:42;20.90;;;13.72;;
52266;SDS011;38223;50.940;4.034;2022-10-31T09:38:17;19.87;;;14.28;;
52266;SDS011;38223;50.940;4.034;2022-10-31T09:41:12;21.93;;;14.63;;
52266;SDS011;38223;50.940;4.034;2022-10-31T09:43:41;21.35;;;14.20;;
52266;SDS011;38223;50.940;4.034;2022-10-31T09:51:56;21.57;;;14.33;;
52266;SDS011;38223;50.940;4.034;2022-10-31T09:54:42;21.12;;;14.65;;
52266;SDS011;38223;50.940;4.034;2022-10-31T09:57:25;20.88;;;14.98;;
52266;SDS011;38223;50.940;4.034;2022-10-31T09:59:57;21.15;;;15.65;;
52266;SDS011;38223;50.940;4.034;2022-10-31T10:02:27;25.48;;;15.50;;
52266;SDS011;38223;50.940;4.034;2022-10-31T10:05:12;17.73;;;13.83;;
52266;SDS011;38223;50.940;4.034;2022-10-31T10:08:03;19.32;;;12.78;;
52266;SDS011;38223;50.940;4.034;2022-10-31T10:10:40;21.48;;;13.68;;
52266;SDS011;38223;50.940;4.034;2022-10-31T10:30:19;17.12;;;14.18;;
52266;SDS011;38223;50.940;4.034;2022-10-31T10:32:53;20.85;;;15.20;;
52266;SDS011;38223;50.940;4.034;2022-10-31T10:35:45;18.50;;;14.68;;
52266;SDS011;38223;50.940;4.034;2022-10-31T10:38:26;19.10;;;14.73;;
52266;SDS011;38223;50.940;4.034;2022-10-31T10:41:07;20.45;;;14.40;;
52266;SDS011;38223;50.940;4.034;2022-10-31T10:43:37;16.25;;;13.68;;
52266;SDS011;38223;50.940;4.034;2022-10-31T10:54:53;18.42;;;14.20;;
52266;SDS011;38223;50.940;4.034;2022-10-31T11:00:44;22.17;;;15.25;;
52266;SDS011;38223;50.940;4.034;2022-10-31T11:03:14;17.90;;;15.30;;
52266;SDS011;38223;50.940;4.034;2022-10-31T11:05:59;24.70;;;14.58;;
52266;SDS011;38223;50.940;4.034;2022-10-31T11:08:27;17.10;;;15.32;;
52266;SDS011;38223;50.940;4.034;2022-10-31T11:11:08;20.45;;;14.68;;
52266;SDS011;38223;50.940;4.034;2022-10-31T11:13:41;16.15;;;14.30;;
52266;SDS011;38223;50.940;4.034;2022-10-31T11:17:07;20.35;;;15.40;;
52266;SDS011;38223;50.940;4.034;2022-10-31T11:21:51;19.10;;;16.17;;
52266;SDS011;38223;50.940;4.034;2022-10-31T11:24:23;19.50;;;15.50;;
52266;SDS011;38223;50.940;4.034;2022-10-31T11:27:13;17.73;;;15.03;;
52266;SDS011;38223;50.940;4.034;2022-10-31T11:29:34;19.55;;;14.00;;
52266;SDS011;38223;50.940;4.034;2022-10-31T11:32:03;16.57;;;14.10;;
52266;SDS011;38223;50.940;4.034;2022-10-31T11:34:39;17.12;;;14.80;;
52266;SDS011;38223;50.940;4.034;2022-10-31T11:37:15;17.77;;;14.75;;
52266;SDS011;38223;50.940;4.034;2022-10-31T11:39:49;19.55;;;13.93;;
52266;SDS011;38223;50.940;4.034;2022-10-31T11:42:28;17.62;;;14.60;;
52266;SDS011;38223;50.940;4.034;2022-10-31T11:44:53;21.07;;;14.07;;
52266;SDS011;38223;50.940;4.034;2022-10-31T11:47:26;25.35;;;16.12;;
52266;SDS011;38223;50.940;4.034;2022-10-31T11:49:58;22.35;;;14.85;;
52266;SDS011;38223;50.940;4.034;2022-10-31T11:52:36;21.37;;;15.08;;
52266;SDS011;38223;50.940;4.034;2022-10-31T11:57:51;18.92;;;14.68;;
52266;SDS011;38223;50.940;4.034;2022-10-31T12:00:23;21.45;;;14.60;;
52266;SDS011;38223;50.940;4.034;2022-10-31T12:03:19;21.48;;;13.70;;
52266;SDS011;38223;50.940;4.034;2022-10-31T12:06:01;15.90;;;14.18;;
52266;SDS011;38223;50.940;4.034;2022-10-31T12:08:35;19.57;;;14.33;;
52266;SDS011;38223;50.940;4.034;2022-10-31T12:16:46;19.98;;;14.00;;
52266;SDS011;38223;50.940;4.034;2022-10-31T12:27:53;17.30;;;13.58;;
52266;SDS011;38223;50.940;4.034;2022-10-31T12:36:19;16.37;;;13.93;;
52266;SDS011;38223;50.940;4.034;2022-10-31T12:41:51;19.27;;;13.62;;
52266;SDS011;38223;50.940;4.034;2022-10-31T12:47:35;20.95;;;13.75;;
52266;SDS011;38223;50.940;4.034;2022-10-31T12:53:29;20.75;;;13.70;;
52266;SDS011;38223;50.940;4.034;2022-10-31T12:56:12;21.12;;;13.65;;
52266;SDS011;38223;50.940;4.034;2022-10-31T12:58:50;20.45;;;12.98;;
52266;SDS011;38223;50.940;4.034;2022-10-31T13:01:25;16.77;;;13.60;;
52266;SDS011;38223;50.940;4.034;2022-10-31T13:04:21;16.05;;;12.88;;
52266;SDS011;38223;50.940;4.034;2022-10-31T13:07:08;19.27;;;13.25;;
52266;SDS011;38223;50.940;4.034;2022-10-31T13:09:38;17.87;;;13.60;;
52266;SDS011;38223;50.940;4.034;2022-10-31T13:12:15;21.30;;;13.40;;
52266;SDS011;38223;50.940;4.034;2022-10-31T13:14:47;22.48;;;13.00;;
52266;SDS011;38223;50.940;4.034;2022-10-31T13:17:25;15.88;;;12.70;;
52266;SDS011;38223;50.940;4.034;2022-10-31T13:22:45;17.75;;;11.95;;
52266;SDS011;38223;50.940;4.034;2022-10-31T13:25:17;20.32;;;11.95;;
52266;SDS011;38223;50.940;4.034;2022-10-31T13:27:51;19.25;;;12.65;;
52266;SDS011;38223;50.940;4.034;2022-10-31T13:30:32;18.40;;;12.00;;
52266;SDS011;38223;50.940;4.034;2022-10-31T13:33:11;22.07;;;12.98;;
52266;SDS011;38223;50.940;4.034;2022-10-31T13:35:51;16.67;;;12.10;;
52266;SDS011;38223;50.940;4.034;2022-10-31T13:38:44;20.52;;;11.35;;
52266;SDS011;38223;50.940;4.034;2022-10-31T13:46:55;20.10;;;12.05;;
52266;SDS011;38223;50.940;4.034;2022-10-31T13:54:44;15.68;;;8.30;;
52266;SDS011;38223;50.940;4.034;2022-10-31T13:57:35;15.50;;;8.10;;
52266;SDS011;38223;50.940;4.034;2022-10-31T14:00:22;19.85;;;8.28;;
52266;SDS011;38223;50.940;4.034;2022-10-31T14:02:51;14.65;;;8.05;;
52266;SDS011;38223;50.940;4.034;2022-10-31T14:05:29;13.93;;;7.62;;
52266;SDS011;38223;50.940;4.034;2022-10-31T14:08:03;17.62;;;8.15;;
52266;SDS011;38223;50.940;4.034;2022-10-31T14:10:39;12.85;;;8.30;;
52266;SDS011;38223;50.940;4.034;2022-10-31T14:13:14;26.70;;;7.35;;
52266;SDS011;38223;50.940;4.034;2022-10-31T14:15:54;12.55;;;6.62;;
52266;SDS011;38223;50.940;4.034;2022-10-31T14:18:29;17.55;;;8.00;;
52266;SDS011;38223;50.940;4.034;2022-10-31T14:21:12;15.15;;;7.67;;
52266;SDS011;38223;50.940;4.034;2022-10-31T14:23:49;16.30;;;7.62;;
52266;SDS011;38223;50.940;4.034;2022-10-31T14:28:58;14.90;;;7.45;;
52266;SDS011;38223;50.940;4.034;2022-10-31T14:31:32;18.20;;;8.63;;
52266;SDS011;38223;50.940;4.034;2022-10-31T14:37:24;20.57;;;7.78;;
52266;SDS011;38223;50.940;4.034;2022-10-31T14:40:14;18.40;;;7.83;;
52266;SDS011;38223;50.940;4.034;2022-10-31T14:51:11;15.60;;;7.60;;
52266;SDS011;38223;50.940;4.034;2022-10-31T14:53:48;16.55;;;8.03;;
52266;SDS011;38223;50.940;4.034;2022-10-31T14:56:28;12.73;;;7.65;;
52266;SDS011;38223;50.940;4.034;2022-10-31T14:59:03;16.87;;;7.97;;
52266;SDS011;38223;50.940;4.034;2022-10-31T15:01:38;13.60;;;7.55;;
52266;SDS011;38223;50.940;4.034;2022-10-31T15:04:17;14.83;;;8.13;;
52266;SDS011;38223;50.940;4.034;2022-10-31T15:06:49;15.45;;;8.10;;
52266;SDS011;38223;50.940;4.034;2022-10-31T15:09:24;19.57;;;7.85;;
52266;SDS011;38223;50.940;4.034;2022-10-31T15:12:00;14.07;;;7.60;;
52266;SDS011;38223;50.940;4.034;2022-10-31T15:14:34;16.10;;;7.85;;
52266;SDS011;38223;50.940;4.034;2022-10-31T15:17:09;14.68;;;7.65;;
52266;SDS011;38223;50.940;4.034;2022-10-31T15:19:43;17.92;;;7.55;;
52266;SDS011;38223;50.940;4.034;2022-10-31T15:22:14;18.32;;;7.22;;
52266;SDS011;38223;50.940;4.034;2022-10-31T15:24:48;16.37;;;7.42;;
52266;SDS011;38223;50.940;4.034;2022-10-31T15:27:20;17.85;;;7.30;;
52266;SDS011;38223;50.940;4.034;2022-10-31T15:29:57;16.37;;;7.67;;
52266;SDS011;38223;50.940;4.034;2022-10-31T15:32:34;15.30;;;8.10;;
52266;SDS011;38223;50.940;4.034;2022-10-31T15:35:08;17.40;;;7.95;;
52266;SDS011;38223;50.940;4.034;2022-10-31T15:37:39;23.38;;;10.48;;
52266;SDS011;38223;50.940;4.034;2022-10-31T15:40:14;29.72;;;11.45;;
52266;SDS011;38223;50.940;4.034;2022-10-31T15:42:45;15.13;;;8.58;;
52266;SDS011;38223;50.940;4.034;2022-10-31T15:45:21;14.33;;;7.95;;
52266;SDS011;38223;50.940;4.034;2022-10-31T15:48:12;20.32;;;8.18;;
52266;SDS011;38223;50.940;4.034;2022-10-31T15:50:40;23.52;;;9.88;;
52266;SDS011;38223;50.940;4.034;2022-10-31T15:53:17;16.07;;;8.48;;
52266;SDS011;38223;50.940;4.034;2022-10-31T15:55:56;18.90;;;8.80;;
52266;SDS011;38223;50.940;4.034;2022-10-31T15:58:35;20.17;;;9.40;;
52266;SDS011;38223;50.940;4.034;2022-10-31T16:01:03;16.25;;;8.55;;
52266;SDS011;38223;50.940;4.034;2022-10-31T16:03:41;17.30;;;8.23;;
52266;SDS011;38223;50.940;4.034;2022-10-31T16:06:19;17.67;;;7.20;;
52266;SDS011;38223;50.940;4.034;2022-10-31T16:08:49;17.70;;;8.03;;
52266;SDS011;38223;50.940;4.034;2022-10-31T16:11:51;18.30;;;7.50;;
52266;SDS011;38223;50.940;4.034;2022-10-31T16:14:06;12.53;;;6.80;;
52266;SDS011;38223;50.940;4.034;2022-10-31T16:16:50;14.13;;;6.85;;
52266;SDS011;38223;50.940;4.034;2022-10-31T16:22:11;9.43;;;6.12;;
52266;SDS011;38223;50.940;4.034;2022-10-31T16:25:01;12.88;;;6.62;;
52266;SDS011;38223;50.940;4.034;2022-10-31T16:27:34;13.20;;;7.58;;
52266;SDS011;38223;50.940;4.034;2022-10-31T16:30:02;11.33;;;6.45;;
52266;SDS011;38223;50.940;4.034;2022-10-31T16:32:58;15.93;;;6.92;;
52266;SDS011;38223;50.940;4.034;2022-10-31T16:35:32;12.07;;;6.75;;
52266;SDS011;38223;50.940;4.034;2022-10-31T16:38:09;13.65;;;6.92;;
52266;SDS011;38223;50.940;4.034;2022-10-31T16:40:41;10.20;;;7.08;;
52266;SDS011;38223;50.940;4.034;2022-10-31T16:43:17;14.43;;;7.75;;
52266;SDS011;38223;50.940;4.034;2022-10-31T16:45:51;10.50;;;7.05;;
52266;SDS011;38223;50.940;4.034;2022-10-31T16:48:17;14.93;;;7.97;;
52266;SDS011;38223;50.940;4.034;2022-10-31T16:50:47;12.37;;;7.58;;
52266;SDS011;38223;50.940;4.034;2022-10-31T16:53:15;14.18;;;7.53;;
52266;SDS011;38223;50.940;4.034;2022-10-31T16:55:44;12.73;;;7.40;;
52266;SDS011;38223;50.940;4.034;2022-10-31T16:58:19;19.52;;;7.67;;
52266;SDS011;38223;50.940;4.034;2022-10-31T17:00:52;14.95;;;7.30;;
52266;SDS011;38223;50.940;4.034;2022-10-31T17:03:26;14.15;;;7.50;;
52266;SDS011;38223;50.940;4.034;2022-10-31T17:05:55;22.32;;;8.00;;
52266;SDS011;38223;50.940;4.034;2022-10-31T17:08:23;22.27;;;9.95;;
52266;SDS011;38223;50.940;4.034;2022-10-31T17:10:58;25.82;;;10.43;;